Huvudsida
METAR-TAF:

METAR-TAF

Flygplatser :

Air Force Base Waterkloof

Waterkloof, Sydafrika

latitud: 25-50S, longitud: 028-13E, höjd: 1498 m

Aktuellt väderrapport

Denna rapport gjordes för 27 minuter sedan, klockan 12:00 UTC
Vind 12 kt från nord/nordväst
Temperatur 23°C
Fuktighet 13%
Tryck 1022 hPa

METAR: FAWK 191200Z AUTO 33012KT //// // ////// 23/M07 Q1022

Tid: 14:27 (12:27 UTC)

Väderprognos

Denna rapport gjordes för 3 timmar och 17 minuter sedan, klockan 09:10 UTC
Prognos gäller från 19 kl. 10 UTC till 19 kl. 18 UTC
Vind 10 kt från nord/nordväst
Sikt 10 km eller mer
Inga moln under 1 500 m eller inga cumulonimbus
Blir
från 19 kl. 15 UTC till 19 kl. 17 UTC
Vind 3 kt varierande vindriktning

TAF: FAWK 190910Z 1910/1918 33010KT CAVOK TX25/1913Z TN13/1918Z BECMG 1915/1917 VRB03KT

Aktuella väderrapporter och prognoser från 4000 flygplatser (METAR- och TAF-rapporter).

De tillgängliga stationerna syns som gula och röda prickar på kartan.

För musen över prickarna för att se namnen på stationerna.

Klicka sedan för att få väderrapporter och prognoser.

För att ändra kartan: Klicka på de gröna knapparna med ett svart kors på för att zooma in; den gröna knappen med ett streck på för att zooma ut; eller på de gröna pilarna för angränsande kartor.


METAR-TAF: